sensor_id;sensor_type;location;lat;lon;timestamp;P1;durP1;ratioP1;P2;durP2;ratioP2
34737;SDS011;39910;47.154;27.614;2023-02-28T00:00:32;9.68;;;9.18;;
34737;SDS011;39910;47.154;27.614;2023-02-28T00:02:58;9.00;;;8.60;;
34737;SDS011;39910;47.154;27.614;2023-02-28T00:05:23;8.90;;;8.50;;
34737;SDS011;39910;47.154;27.614;2023-02-28T00:07:49;8.68;;;8.27;;
34737;SDS011;39910;47.154;27.614;2023-02-28T00:10:17;9.05;;;8.57;;
34737;SDS011;39910;47.154;27.614;2023-02-28T00:12:46;8.43;;;8.02;;
34737;SDS011;39910;47.154;27.614;2023-02-28T00:15:11;8.65;;;8.25;;
34737;SDS011;39910;47.154;27.614;2023-02-28T00:17:37;9.10;;;8.60;;
34737;SDS011;39910;47.154;27.614;2023-02-28T00:20:03;9.15;;;8.65;;
34737;SDS011;39910;47.154;27.614;2023-02-28T00:22:40;9.73;;;9.23;;
34737;SDS011;39910;47.154;27.614;2023-02-28T00:25:05;8.98;;;8.50;;
34737;SDS011;39910;47.154;27.614;2023-02-28T00:27:32;9.20;;;8.70;;
34737;SDS011;39910;47.154;27.614;2023-02-28T00:29:57;9.02;;;8.60;;
34737;SDS011;39910;47.154;27.614;2023-02-28T00:32:22;8.45;;;8.05;;
34737;SDS011;39910;47.154;27.614;2023-02-28T00:34:47;8.73;;;8.32;;
34737;SDS011;39910;47.154;27.614;2023-02-28T00:37:13;8.40;;;8.00;;
34737;SDS011;39910;47.154;27.614;2023-02-28T00:39:38;8.68;;;8.27;;
34737;SDS011;39910;47.154;27.614;2023-02-28T00:42:05;9.10;;;8.60;;
34737;SDS011;39910;47.154;27.614;2023-02-28T00:44:30;9.52;;;9.02;;
34737;SDS011;39910;47.154;27.614;2023-02-28T00:46:56;9.02;;;8.63;;
34737;SDS011;39910;47.154;27.614;2023-02-28T00:49:22;8.95;;;8.55;;
34737;SDS011;39910;47.154;27.614;2023-02-28T00:51:47;8.68;;;8.27;;
34737;SDS011;39910;47.154;27.614;2023-02-28T00:54:12;9.40;;;8.90;;
34737;SDS011;39910;47.154;27.614;2023-02-28T00:56:38;9.82;;;9.32;;
34737;SDS011;39910;47.154;27.614;2023-02-28T00:59:03;8.85;;;8.45;;
34737;SDS011;39910;47.154;27.614;2023-02-28T01:01:28;8.52;;;8.13;;
34737;SDS011;39910;47.154;27.614;2023-02-28T01:03:53;8.57;;;8.18;;
34737;SDS011;39910;47.154;27.614;2023-02-28T01:06:19;9.00;;;8.50;;
34737;SDS011;39910;47.154;27.614;2023-02-28T01:08:44;9.40;;;8.90;;
34737;SDS011;39910;47.154;27.614;2023-02-28T01:11:10;8.70;;;8.30;;
34737;SDS011;39910;47.154;27.614;2023-02-28T01:13:35;8.70;;;8.30;;
34737;SDS011;39910;47.154;27.614;2023-02-28T01:16:01;8.52;;;8.13;;
34737;SDS011;39910;47.154;27.614;2023-02-28T01:18:26;9.00;;;8.60;;
34737;SDS011;39910;47.154;27.614;2023-02-28T01:20:51;9.63;;;9.13;;
34737;SDS011;39910;47.154;27.614;2023-02-28T01:23:18;9.40;;;8.90;;
34737;SDS011;39910;47.154;27.614;2023-02-28T01:25:44;8.63;;;8.23;;
34737;SDS011;39910;47.154;27.614;2023-02-28T01:28:09;8.50;;;8.10;;
34737;SDS011;39910;47.154;27.614;2023-02-28T01:30:35;8.70;;;8.30;;
34737;SDS011;39910;47.154;27.614;2023-02-28T01:33:00;9.00;;;8.60;;
34737;SDS011;39910;47.154;27.614;2023-02-28T01:35:25;8.77;;;8.38;;
34737;SDS011;39910;47.154;27.614;2023-02-28T01:37:50;8.50;;;8.10;;
34737;SDS011;39910;47.154;27.614;2023-02-28T01:40:16;8.45;;;8.05;;
34737;SDS011;39910;47.154;27.614;2023-02-28T01:42:41;8.80;;;8.40;;
34737;SDS011;39910;47.154;27.614;2023-02-28T01:45:16;8.73;;;8.32;;
34737;SDS011;39910;47.154;27.614;2023-02-28T01:47:43;8.25;;;7.85;;
34737;SDS011;39910;47.154;27.614;2023-02-28T01:50:12;8.38;;;7.97;;
34737;SDS011;39910;47.154;27.614;2023-02-28T01:52:38;8.30;;;7.90;;
34737;SDS011;39910;47.154;27.614;2023-02-28T01:55:04;9.23;;;8.73;;
34737;SDS011;39910;47.154;27.614;2023-02-28T01:57:35;9.57;;;9.07;;
34737;SDS011;39910;47.154;27.614;2023-02-28T02:00:09;8.50;;;8.10;;
34737;SDS011;39910;47.154;27.614;2023-02-28T02:02:35;8.75;;;8.35;;
34737;SDS011;39910;47.154;27.614;2023-02-28T02:05:08;9.30;;;8.80;;
34737;SDS011;39910;47.154;27.614;2023-02-28T02:07:36;9.43;;;8.93;;
34737;SDS011;39910;47.154;27.614;2023-02-28T02:10:15;8.70;;;8.30;;
34737;SDS011;39910;47.154;27.614;2023-02-28T02:17:42;10.75;;;10.05;;
34737;SDS011;39910;47.154;27.614;2023-02-28T02:38:02;9.00;;;8.50;;
34737;SDS011;39910;47.154;27.614;2023-02-28T02:40:30;9.13;;;8.63;;
34737;SDS011;39910;47.154;27.614;2023-02-28T02:45:32;8.23;;;7.82;;
34737;SDS011;39910;47.154;27.614;2023-02-28T02:48:03;8.50;;;8.10;;
34737;SDS011;39910;47.154;27.614;2023-02-28T02:50:30;9.65;;;9.15;;
34737;SDS011;39910;47.154;27.614;2023-02-28T02:52:57;9.13;;;8.63;;
34737;SDS011;39910;47.154;27.614;2023-02-28T02:55:23;9.15;;;8.65;;
34737;SDS011;39910;47.154;27.614;2023-02-28T02:57:50;8.73;;;8.32;;
34737;SDS011;39910;47.154;27.614;2023-02-28T03:00:17;9.18;;;8.68;;
34737;SDS011;39910;47.154;27.614;2023-02-28T03:02:44;9.30;;;8.80;;
34737;SDS011;39910;47.154;27.614;2023-02-28T03:05:14;8.70;;;8.30;;
34737;SDS011;39910;47.154;27.614;2023-02-28T03:07:41;8.90;;;8.50;;
34737;SDS011;39910;47.154;27.614;2023-02-28T03:10:26;8.73;;;8.32;;
34737;SDS011;39910;47.154;27.614;2023-02-28T03:12:53;9.75;;;9.20;;
34737;SDS011;39910;47.154;27.614;2023-02-28T03:15:32;8.57;;;8.18;;
34737;SDS011;39910;47.154;27.614;2023-02-28T03:18:06;8.95;;;8.50;;
34737;SDS011;39910;47.154;27.614;2023-02-28T03:20:35;8.73;;;8.32;;
34737;SDS011;39910;47.154;27.614;2023-02-28T03:25:33;9.18;;;8.68;;
34737;SDS011;39910;47.154;27.614;2023-02-28T03:28:05;8.23;;;7.82;;
34737;SDS011;39910;47.154;27.614;2023-02-28T03:30:45;8.43;;;8.02;;
34737;SDS011;39910;47.154;27.614;2023-02-28T03:35:48;8.60;;;8.20;;
34737;SDS011;39910;47.154;27.614;2023-02-28T03:38:20;8.65;;;8.25;;
34737;SDS011;39910;47.154;27.614;2023-02-28T03:40:51;8.48;;;8.07;;
34737;SDS011;39910;47.154;27.614;2023-02-28T03:43:26;8.90;;;8.50;;
34737;SDS011;39910;47.154;27.614;2023-02-28T03:45:53;8.38;;;7.97;;
34737;SDS011;39910;47.154;27.614;2023-02-28T03:48:21;8.55;;;8.15;;
34737;SDS011;39910;47.154;27.614;2023-02-28T03:50:51;11.20;;;10.50;;
34737;SDS011;39910;47.154;27.614;2023-02-28T03:55:50;9.15;;;8.65;;
34737;SDS011;39910;47.154;27.614;2023-02-28T03:58:18;9.00;;;8.52;;
34737;SDS011;39910;47.154;27.614;2023-02-28T04:00:46;8.65;;;8.25;;
34737;SDS011;39910;47.154;27.614;2023-02-28T04:03:13;8.50;;;8.10;;
34737;SDS011;39910;47.154;27.614;2023-02-28T04:05:52;10.30;;;9.70;;
34737;SDS011;39910;47.154;27.614;2023-02-28T04:08:17;8.80;;;8.40;;
34737;SDS011;39910;47.154;27.614;2023-02-28T04:10:43;8.95;;;8.50;;
34737;SDS011;39910;47.154;27.614;2023-02-28T04:13:10;8.82;;;8.43;;
34737;SDS011;39910;47.154;27.614;2023-02-28T04:15:35;9.57;;;9.07;;
34737;SDS011;39910;47.154;27.614;2023-02-28T04:18:01;8.75;;;8.35;;
34737;SDS011;39910;47.154;27.614;2023-02-28T04:20:27;9.50;;;9.00;;
34737;SDS011;39910;47.154;27.614;2023-02-28T04:22:52;8.88;;;8.48;;
34737;SDS011;39910;47.154;27.614;2023-02-28T04:25:18;8.88;;;8.48;;
34737;SDS011;39910;47.154;27.614;2023-02-28T04:27:43;9.00;;;8.57;;
34737;SDS011;39910;47.154;27.614;2023-02-28T04:30:10;8.90;;;8.50;;
34737;SDS011;39910;47.154;27.614;2023-02-28T04:32:35;8.82;;;8.40;;
34737;SDS011;39910;47.154;27.614;2023-02-28T04:35:00;8.80;;;8.40;;
34737;SDS011;39910;47.154;27.614;2023-02-28T04:37:26;10.73;;;10.07;;
34737;SDS011;39910;47.154;27.614;2023-02-28T04:39:53;8.90;;;8.50;;
34737;SDS011;39910;47.154;27.614;2023-02-28T04:42:19;9.27;;;8.77;;
34737;SDS011;39910;47.154;27.614;2023-02-28T04:44:44;9.38;;;8.88;;
34737;SDS011;39910;47.154;27.614;2023-02-28T04:47:10;8.30;;;7.90;;
34737;SDS011;39910;47.154;27.614;2023-02-28T04:49:35;9.10;;;8.60;;
34737;SDS011;39910;47.154;27.614;2023-02-28T04:52:00;9.23;;;8.73;;
34737;SDS011;39910;47.154;27.614;2023-02-28T04:54:26;9.27;;;8.77;;
34737;SDS011;39910;47.154;27.614;2023-02-28T04:56:51;9.05;;;8.60;;
34737;SDS011;39910;47.154;27.614;2023-02-28T04:59:16;10.05;;;9.45;;
34737;SDS011;39910;47.154;27.614;2023-02-28T05:01:45;9.45;;;8.95;;
34737;SDS011;39910;47.154;27.614;2023-02-28T05:04:10;9.70;;;9.20;;
34737;SDS011;39910;47.154;27.614;2023-02-28T05:06:35;9.60;;;9.10;;
34737;SDS011;39910;47.154;27.614;2023-02-28T05:09:01;9.48;;;8.98;;
34737;SDS011;39910;47.154;27.614;2023-02-28T05:11:30;9.27;;;8.77;;
34737;SDS011;39910;47.154;27.614;2023-02-28T05:13:59;9.33;;;8.83;;
34737;SDS011;39910;47.154;27.614;2023-02-28T05:16:25;10.07;;;9.50;;
34737;SDS011;39910;47.154;27.614;2023-02-28T05:18:50;10.35;;;9.73;;
34737;SDS011;39910;47.154;27.614;2023-02-28T05:21:34;10.60;;;10.00;;
34737;SDS011;39910;47.154;27.614;2023-02-28T05:26:25;10.03;;;9.43;;
34737;SDS011;39910;47.154;27.614;2023-02-28T05:28:51;8.57;;;8.18;;
34737;SDS011;39910;47.154;27.614;2023-02-28T05:31:16;10.43;;;9.82;;
34737;SDS011;39910;47.154;27.614;2023-02-28T05:33:42;9.40;;;8.90;;
34737;SDS011;39910;47.154;27.614;2023-02-28T05:36:07;9.65;;;9.15;;
34737;SDS011;39910;47.154;27.614;2023-02-28T05:38:33;10.00;;;9.40;;
34737;SDS011;39910;47.154;27.614;2023-02-28T05:40:58;10.10;;;9.50;;
34737;SDS011;39910;47.154;27.614;2023-02-28T05:43:23;9.68;;;9.18;;
34737;SDS011;39910;47.154;27.614;2023-02-28T05:45:49;10.38;;;9.77;;
34737;SDS011;39910;47.154;27.614;2023-02-28T05:48:14;10.95;;;10.25;;
34737;SDS011;39910;47.154;27.614;2023-02-28T05:50:40;9.73;;;9.23;;
34737;SDS011;39910;47.154;27.614;2023-02-28T05:53:07;8.98;;;8.57;;
34737;SDS011;39910;47.154;27.614;2023-02-28T05:55:33;10.27;;;9.68;;
34737;SDS011;39910;47.154;27.614;2023-02-28T05:57:58;10.77;;;10.18;;
34737;SDS011;39910;47.154;27.614;2023-02-28T06:00:23;9.48;;;8.98;;
34737;SDS011;39910;47.154;27.614;2023-02-28T06:02:49;8.77;;;8.38;;
34737;SDS011;39910;47.154;27.614;2023-02-28T06:05:15;10.13;;;9.52;;
34737;SDS011;39910;47.154;27.614;2023-02-28T06:07:41;9.70;;;9.20;;
34737;SDS011;39910;47.154;27.614;2023-02-28T06:10:06;9.52;;;9.02;;
34737;SDS011;39910;47.154;27.614;2023-02-28T06:12:32;9.93;;;9.43;;
34737;SDS011;39910;47.154;27.614;2023-02-28T06:14:58;10.48;;;9.88;;
34737;SDS011;39910;47.154;27.614;2023-02-28T06:17:23;9.35;;;8.85;;
34737;SDS011;39910;47.154;27.614;2023-02-28T06:19:49;10.13;;;9.52;;
34737;SDS011;39910;47.154;27.614;2023-02-28T06:22:14;9.50;;;9.00;;
34737;SDS011;39910;47.154;27.614;2023-02-28T06:24:39;9.45;;;8.95;;
34737;SDS011;39910;47.154;27.614;2023-02-28T06:27:04;9.35;;;8.85;;
34737;SDS011;39910;47.154;27.614;2023-02-28T06:29:35;9.25;;;8.75;;
34737;SDS011;39910;47.154;27.614;2023-02-28T06:32:01;9.85;;;9.35;;
34737;SDS011;39910;47.154;27.614;2023-02-28T06:34:26;9.55;;;9.05;;
34737;SDS011;39910;47.154;27.614;2023-02-28T06:36:52;8.85;;;8.45;;
34737;SDS011;39910;47.154;27.614;2023-02-28T06:39:17;9.25;;;8.75;;
34737;SDS011;39910;47.154;27.614;2023-02-28T06:41:43;9.20;;;8.70;;
34737;SDS011;39910;47.154;27.614;2023-02-28T06:44:14;10.10;;;9.50;;
34737;SDS011;39910;47.154;27.614;2023-02-28T06:46:40;10.10;;;9.52;;
34737;SDS011;39910;47.154;27.614;2023-02-28T06:49:06;11.63;;;10.90;;
34737;SDS011;39910;47.154;27.614;2023-02-28T06:51:33;11.07;;;10.38;;
34737;SDS011;39910;47.154;27.614;2023-02-28T06:53:58;10.43;;;9.80;;
34737;SDS011;39910;47.154;27.614;2023-02-28T06:56:24;10.60;;;9.98;;
34737;SDS011;39910;47.154;27.614;2023-02-28T06:58:49;11.73;;;10.95;;
34737;SDS011;39910;47.154;27.614;2023-02-28T07:01:15;10.48;;;9.88;;
34737;SDS011;39910;47.154;27.614;2023-02-28T07:03:41;10.77;;;10.10;;
34737;SDS011;39910;47.154;27.614;2023-02-28T07:06:06;10.45;;;9.85;;
34737;SDS011;39910;47.154;27.614;2023-02-28T07:08:32;11.43;;;10.73;;
34737;SDS011;39910;47.154;27.614;2023-02-28T07:10:57;12.27;;;11.48;;
34737;SDS011;39910;47.154;27.614;2023-02-28T07:13:23;10.30;;;9.70;;
34737;SDS011;39910;47.154;27.614;2023-02-28T07:18:20;10.57;;;9.98;;
34737;SDS011;39910;47.154;27.614;2023-02-28T07:20:45;9.93;;;9.35;;
34737;SDS011;39910;47.154;27.614;2023-02-28T07:23:10;9.68;;;9.18;;
34737;SDS011;39910;47.154;27.614;2023-02-28T07:25:36;11.07;;;10.38;;
34737;SDS011;39910;47.154;27.614;2023-02-28T07:28:01;10.30;;;9.70;;
34737;SDS011;39910;47.154;27.614;2023-02-28T07:30:26;10.73;;;10.13;;
34737;SDS011;39910;47.154;27.614;2023-02-28T07:32:52;10.77;;;10.15;;
34737;SDS011;39910;47.154;27.614;2023-02-28T07:35:19;10.75;;;10.13;;
34737;SDS011;39910;47.154;27.614;2023-02-28T07:37:45;11.02;;;10.32;;
34737;SDS011;39910;47.154;27.614;2023-02-28T07:40:12;9.65;;;9.15;;
34737;SDS011;39910;47.154;27.614;2023-02-28T07:42:38;11.50;;;10.80;;
34737;SDS011;39910;47.154;27.614;2023-02-28T07:45:03;10.30;;;9.70;;
34737;SDS011;39910;47.154;27.614;2023-02-28T07:47:29;11.52;;;10.82;;
34737;SDS011;39910;47.154;27.614;2023-02-28T07:49:55;11.63;;;10.93;;
34737;SDS011;39910;47.154;27.614;2023-02-28T07:52:21;10.95;;;10.35;;
34737;SDS011;39910;47.154;27.614;2023-02-28T07:54:48;11.93;;;11.23;;
34737;SDS011;39910;47.154;27.614;2023-02-28T07:57:14;10.50;;;9.90;;
34737;SDS011;39910;47.154;27.614;2023-02-28T07:59:39;12.35;;;11.55;;
34737;SDS011;39910;47.154;27.614;2023-02-28T08:02:04;11.68;;;10.98;;
34737;SDS011;39910;47.154;27.614;2023-02-28T08:04:33;10.77;;;10.18;;
34737;SDS011;39910;47.154;27.614;2023-02-28T08:06:58;10.77;;;10.18;;
34737;SDS011;39910;47.154;27.614;2023-02-28T08:09:24;10.55;;;9.95;;
34737;SDS011;39910;47.154;27.614;2023-02-28T08:11:49;10.43;;;9.82;;
34737;SDS011;39910;47.154;27.614;2023-02-28T08:14:15;10.80;;;10.20;;
34737;SDS011;39910;47.154;27.614;2023-02-28T08:16:40;9.70;;;9.20;;
34737;SDS011;39910;47.154;27.614;2023-02-28T08:19:05;9.90;;;9.40;;
34737;SDS011;39910;47.154;27.614;2023-02-28T08:21:31;9.70;;;9.20;;
34737;SDS011;39910;47.154;27.614;2023-02-28T08:23:56;9.35;;;8.90;;
34737;SDS011;39910;47.154;27.614;2023-02-28T08:26:22;9.55;;;9.05;;
34737;SDS011;39910;47.154;27.614;2023-02-28T08:28:47;9.15;;;8.75;;
34737;SDS011;39910;47.154;27.614;2023-02-28T08:31:13;9.40;;;8.93;;
34737;SDS011;39910;47.154;27.614;2023-02-28T08:33:40;9.52;;;9.05;;
34737;SDS011;39910;47.154;27.614;2023-02-28T08:36:06;9.77;;;9.27;;
34737;SDS011;39910;47.154;27.614;2023-02-28T08:38:32;10.18;;;9.68;;
34737;SDS011;39910;47.154;27.614;2023-02-28T08:40:58;9.63;;;9.13;;
34737;SDS011;39910;47.154;27.614;2023-02-28T08:43:24;9.10;;;8.70;;
34737;SDS011;39910;47.154;27.614;2023-02-28T08:45:52;9.00;;;8.60;;
34737;SDS011;39910;47.154;27.614;2023-02-28T08:48:18;8.88;;;8.48;;
34737;SDS011;39910;47.154;27.614;2023-02-28T08:50:43;9.93;;;9.43;;
34737;SDS011;39910;47.154;27.614;2023-02-28T08:53:08;9.60;;;9.10;;
34737;SDS011;39910;47.154;27.614;2023-02-28T08:55:34;9.05;;;8.65;;
34737;SDS011;39910;47.154;27.614;2023-02-28T08:57:59;9.45;;;9.00;;
34737;SDS011;39910;47.154;27.614;2023-02-28T09:00:26;9.68;;;9.18;;
34737;SDS011;39910;47.154;27.614;2023-02-28T09:02:51;8.93;;;8.52;;
34737;SDS011;39910;47.154;27.614;2023-02-28T09:05:16;9.90;;;9.40;;
34737;SDS011;39910;47.154;27.614;2023-02-28T09:07:42;9.45;;;9.05;;
34737;SDS011;39910;47.154;27.614;2023-02-28T09:10:08;9.18;;;8.77;;
34737;SDS011;39910;47.154;27.614;2023-02-28T09:12:34;9.85;;;9.35;;
34737;SDS011;39910;47.154;27.614;2023-02-28T09:14:59;9.50;;;9.10;;
34737;SDS011;39910;47.154;27.614;2023-02-28T09:17:25;9.75;;;9.35;;
34737;SDS011;39910;47.154;27.614;2023-02-28T09:19:50;9.68;;;9.27;;
34737;SDS011;39910;47.154;27.614;2023-02-28T09:22:15;9.90;;;9.45;;
34737;SDS011;39910;47.154;27.614;2023-02-28T09:24:41;10.38;;;9.88;;
34737;SDS011;39910;47.154;27.614;2023-02-28T09:27:06;10.32;;;9.82;;
34737;SDS011;39910;47.154;27.614;2023-02-28T09:29:32;10.93;;;10.43;;
34737;SDS011;39910;47.154;27.614;2023-02-28T09:31:58;10.10;;;9.60;;
34737;SDS011;39910;47.154;27.614;2023-02-28T09:34:24;10.25;;;9.75;;
34737;SDS011;39910;47.154;27.614;2023-02-28T09:36:49;11.80;;;11.20;;
34737;SDS011;39910;47.154;27.614;2023-02-28T09:39:19;9.98;;;9.48;;
34737;SDS011;39910;47.154;27.614;2023-02-28T09:41:45;10.20;;;9.70;;
34737;SDS011;39910;47.154;27.614;2023-02-28T09:47:00;9.90;;;9.40;;
34737;SDS011;39910;47.154;27.614;2023-02-28T09:49:32;10.02;;;9.52;;
34737;SDS011;39910;47.154;27.614;2023-02-28T09:51:59;9.55;;;9.13;;
34737;SDS011;39910;47.154;27.614;2023-02-28T09:54:28;10.50;;;10.00;;
34737;SDS011;39910;47.154;27.614;2023-02-28T09:57:38;9.90;;;9.40;;
34737;SDS011;39910;47.154;27.614;2023-02-28T10:04:50;11.23;;;10.63;;
34737;SDS011;39910;47.154;27.614;2023-02-28T10:10:04;10.43;;;9.93;;
34737;SDS011;39910;47.154;27.614;2023-02-28T10:12:33;10.57;;;10.07;;
34737;SDS011;39910;47.154;27.614;2023-02-28T10:15:03;10.48;;;9.98;;
34737;SDS011;39910;47.154;27.614;2023-02-28T10:17:33;10.65;;;10.15;;
34737;SDS011;39910;47.154;27.614;2023-02-28T10:20:02;10.48;;;9.98;;
34737;SDS011;39910;47.154;27.614;2023-02-28T10:25:24;10.57;;;10.07;;
34737;SDS011;39910;47.154;27.614;2023-02-28T10:27:50;11.80;;;11.13;;
34737;SDS011;39910;47.154;27.614;2023-02-28T10:30:18;11.55;;;10.95;;
34737;SDS011;39910;47.154;27.614;2023-02-28T10:32:47;10.95;;;10.35;;
34737;SDS011;39910;47.154;27.614;2023-02-28T10:35:23;11.05;;;10.45;;
34737;SDS011;39910;47.154;27.614;2023-02-28T10:37:56;10.73;;;10.13;;
34737;SDS011;39910;47.154;27.614;2023-02-28T10:45:25;10.52;;;10.02;;
34737;SDS011;39910;47.154;27.614;2023-02-28T10:55:51;10.98;;;10.38;;
34737;SDS011;39910;47.154;27.614;2023-02-28T10:58:24;10.43;;;9.90;;
34737;SDS011;39910;47.154;27.614;2023-02-28T11:00:50;11.20;;;10.60;;
34737;SDS011;39910;47.154;27.614;2023-02-28T11:03:29;11.43;;;10.82;;
34737;SDS011;39910;47.154;27.614;2023-02-28T11:05:55;11.35;;;10.75;;
34737;SDS011;39910;47.154;27.614;2023-02-28T11:08:21;10.55;;;9.98;;
34737;SDS011;39910;47.154;27.614;2023-02-28T11:10:47;11.75;;;11.07;;
34737;SDS011;39910;47.154;27.614;2023-02-28T11:13:32;12.10;;;11.40;;
34737;SDS011;39910;47.154;27.614;2023-02-28T11:15:59;11.00;;;10.40;;
34737;SDS011;39910;47.154;27.614;2023-02-28T11:21:07;10.77;;;10.18;;
34737;SDS011;39910;47.154;27.614;2023-02-28T11:23:33;11.75;;;11.05;;
34737;SDS011;39910;47.154;27.614;2023-02-28T11:26:02;11.85;;;11.15;;
34737;SDS011;39910;47.154;27.614;2023-02-28T11:28:34;12.00;;;11.30;;
34737;SDS011;39910;47.154;27.614;2023-02-28T11:31:01;10.95;;;10.35;;
34737;SDS011;39910;47.154;27.614;2023-02-28T11:36:02;11.73;;;11.02;;
34737;SDS011;39910;47.154;27.614;2023-02-28T11:38:28;11.57;;;10.88;;
34737;SDS011;39910;47.154;27.614;2023-02-28T11:56:51;11.52;;;10.88;;
34737;SDS011;39910;47.154;27.614;2023-02-28T12:04:33;11.70;;;11.00;;
34737;SDS011;39910;47.154;27.614;2023-02-28T12:07:03;11.15;;;10.55;;
34737;SDS011;39910;47.154;27.614;2023-02-28T12:27:40;10.82;;;10.23;;
34737;SDS011;39910;47.154;27.614;2023-02-28T12:30:15;12.10;;;11.40;;
34737;SDS011;39910;47.154;27.614;2023-02-28T12:32:43;14.98;;;13.93;;
34737;SDS011;39910;47.154;27.614;2023-02-28T12:35:13;10.70;;;10.10;;
34737;SDS011;39910;47.154;27.614;2023-02-28T12:40:21;12.43;;;11.63;;
34737;SDS011;39910;47.154;27.614;2023-02-28T12:42:51;11.75;;;11.05;;
34737;SDS011;39910;47.154;27.614;2023-02-28T12:47:47;11.40;;;10.70;;
34737;SDS011;39910;47.154;27.614;2023-02-28T12:50:13;10.70;;;10.10;;
34737;SDS011;39910;47.154;27.614;2023-02-28T13:10:22;11.38;;;10.68;;
34737;SDS011;39910;47.154;27.614;2023-02-28T13:12:52;11.20;;;10.55;;
34737;SDS011;39910;47.154;27.614;2023-02-28T13:17:48;10.73;;;10.13;;
34737;SDS011;39910;47.154;27.614;2023-02-28T13:20:15;10.35;;;9.75;;
34737;SDS011;39910;47.154;27.614;2023-02-28T13:22:42;11.43;;;10.73;;
34737;SDS011;39910;47.154;27.614;2023-02-28T13:27:49;11.40;;;10.70;;
34737;SDS011;39910;47.154;27.614;2023-02-28T13:35:48;10.75;;;10.15;;
34737;SDS011;39910;47.154;27.614;2023-02-28T13:38:17;10.80;;;10.20;;
34737;SDS011;39910;47.154;27.614;2023-02-28T13:40:46;11.75;;;11.05;;
34737;SDS011;39910;47.154;27.614;2023-02-28T13:43:12;9.73;;;9.23;;
34737;SDS011;39910;47.154;27.614;2023-02-28T13:45:44;11.35;;;10.65;;
34737;SDS011;39910;47.154;27.614;2023-02-28T13:48:26;10.48;;;9.88;;
34737;SDS011;39910;47.154;27.614;2023-02-28T13:50:52;11.70;;;11.00;;
34737;SDS011;39910;47.154;27.614;2023-02-28T14:03:07;10.27;;;9.73;;
34737;SDS011;39910;47.154;27.614;2023-02-28T14:05:36;10.77;;;10.18;;
34737;SDS011;39910;47.154;27.614;2023-02-28T14:08:10;10.02;;;9.52;;
34737;SDS011;39910;47.154;27.614;2023-02-28T14:10:48;11.63;;;10.93;;
34737;SDS011;39910;47.154;27.614;2023-02-28T14:15:40;11.68;;;10.98;;
34737;SDS011;39910;47.154;27.614;2023-02-28T14:20:52;14.18;;;13.18;;
34737;SDS011;39910;47.154;27.614;2023-02-28T14:28:43;11.77;;;11.07;;
34737;SDS011;39910;47.154;27.614;2023-02-28T14:33:54;10.87;;;10.27;;
34737;SDS011;39910;47.154;27.614;2023-02-28T14:36:25;11.02;;;10.43;;
34737;SDS011;39910;47.154;27.614;2023-02-28T14:38:52;11.45;;;10.75;;
34737;SDS011;39910;47.154;27.614;2023-02-28T14:41:22;10.60;;;10.00;;
34737;SDS011;39910;47.154;27.614;2023-02-28T14:43:50;11.38;;;10.68;;
34737;SDS011;39910;47.154;27.614;2023-02-28T14:46:16;10.70;;;10.10;;
34737;SDS011;39910;47.154;27.614;2023-02-28T14:48:44;11.52;;;10.82;;
34737;SDS011;39910;47.154;27.614;2023-02-28T14:51:10;11.30;;;10.63;;
34737;SDS011;39910;47.154;27.614;2023-02-28T14:53:36;11.35;;;10.65;;
34737;SDS011;39910;47.154;27.614;2023-02-28T14:56:02;10.60;;;10.00;;
34737;SDS011;39910;47.154;27.614;2023-02-28T14:58:29;10.80;;;10.20;;
34737;SDS011;39910;47.154;27.614;2023-02-28T15:00:56;10.48;;;9.88;;
34737;SDS011;39910;47.154;27.614;2023-02-28T15:06:01;10.27;;;9.68;;
34737;SDS011;39910;47.154;27.614;2023-02-28T15:08:27;10.85;;;10.25;;
34737;SDS011;39910;47.154;27.614;2023-02-28T15:10:56;11.07;;;10.43;;
34737;SDS011;39910;47.154;27.614;2023-02-28T15:13:22;11.90;;;11.20;;
34737;SDS011;39910;47.154;27.614;2023-02-28T15:15:53;11.75;;;11.05;;
34737;SDS011;39910;47.154;27.614;2023-02-28T15:20:52;9.82;;;9.32;;
34737;SDS011;39910;47.154;27.614;2023-02-28T15:23:18;12.07;;;11.32;;
34737;SDS011;39910;47.154;27.614;2023-02-28T15:25:44;11.43;;;10.73;;
34737;SDS011;39910;47.154;27.614;2023-02-28T15:28:11;11.38;;;10.68;;
34737;SDS011;39910;47.154;27.614;2023-02-28T15:30:39;12.05;;;11.32;;
34737;SDS011;39910;47.154;27.614;2023-02-28T15:35:38;11.30;;;10.60;;
34737;SDS011;39910;47.154;27.614;2023-02-28T15:38:13;10.85;;;10.25;;
34737;SDS011;39910;47.154;27.614;2023-02-28T15:40:44;11.48;;;10.77;;
34737;SDS011;39910;47.154;27.614;2023-02-28T15:43:14;10.82;;;10.23;;
34737;SDS011;39910;47.154;27.614;2023-02-28T15:45:47;12.20;;;11.43;;
34737;SDS011;39910;47.154;27.614;2023-02-28T15:48:36;11.53;;;10.83;;
34737;SDS011;39910;47.154;27.614;2023-02-28T15:53:28;10.40;;;9.82;;
34737;SDS011;39910;47.154;27.614;2023-02-28T15:55:58;9.75;;;9.25;;
34737;SDS011;39910;47.154;27.614;2023-02-28T15:58:24;10.90;;;10.30;;
34737;SDS011;39910;47.154;27.614;2023-02-28T16:01:36;10.40;;;9.80;;
34737;SDS011;39910;47.154;27.614;2023-02-28T16:03:39;9.75;;;9.25;;
34737;SDS011;39910;47.154;27.614;2023-02-28T16:08:54;9.63;;;9.13;;
34737;SDS011;39910;47.154;27.614;2023-02-28T16:11:22;10.30;;;9.70;;
34737;SDS011;39910;47.154;27.614;2023-02-28T16:13:47;9.55;;;9.05;;
34737;SDS011;39910;47.154;27.614;2023-02-28T16:16:17;9.35;;;8.85;;
34737;SDS011;39910;47.154;27.614;2023-02-28T16:18:42;9.23;;;8.80;;
34737;SDS011;39910;47.154;27.614;2023-02-28T16:21:08;10.15;;;9.57;;
34737;SDS011;39910;47.154;27.614;2023-02-28T16:23:33;10.05;;;9.55;;
34737;SDS011;39910;47.154;27.614;2023-02-28T16:26:00;9.55;;;9.05;;
34737;SDS011;39910;47.154;27.614;2023-02-28T16:28:28;9.32;;;8.85;;
34737;SDS011;39910;47.154;27.614;2023-02-28T16:30:56;9.43;;;8.93;;
34737;SDS011;39910;47.154;27.614;2023-02-28T16:33:21;9.45;;;8.95;;
34737;SDS011;39910;47.154;27.614;2023-02-28T16:35:47;9.60;;;9.10;;
34737;SDS011;39910;47.154;27.614;2023-02-28T16:38:12;8.90;;;8.50;;
34737;SDS011;39910;47.154;27.614;2023-02-28T16:40:37;10.60;;;10.00;;
34737;SDS011;39910;47.154;27.614;2023-02-28T16:43:36;9.88;;;9.38;;
34737;SDS011;39910;47.154;27.614;2023-02-28T16:45:55;11.07;;;10.38;;
34737;SDS011;39910;47.154;27.614;2023-02-28T16:48:21;10.70;;;10.10;;
34737;SDS011;39910;47.154;27.614;2023-02-28T16:50:46;9.50;;;9.00;;
34737;SDS011;39910;47.154;27.614;2023-02-28T16:53:11;10.25;;;9.65;;
34737;SDS011;39910;47.154;27.614;2023-02-28T16:55:38;10.15;;;9.55;;
34737;SDS011;39910;47.154;27.614;2023-02-28T16:58:04;9.48;;;8.98;;
34737;SDS011;39910;47.154;27.614;2023-02-28T17:00:30;10.55;;;9.95;;
34737;SDS011;39910;47.154;27.614;2023-02-28T17:02:56;9.40;;;8.90;;
34737;SDS011;39910;47.154;27.614;2023-02-28T17:05:22;10.77;;;10.18;;
34737;SDS011;39910;47.154;27.614;2023-02-28T17:07:47;10.57;;;9.98;;
34737;SDS011;39910;47.154;27.614;2023-02-28T17:10:20;9.88;;;9.32;;
34737;SDS011;39910;47.154;27.614;2023-02-28T17:12:46;10.38;;;9.77;;
34737;SDS011;39910;47.154;27.614;2023-02-28T17:15:12;9.70;;;9.20;;
34737;SDS011;39910;47.154;27.614;2023-02-28T17:17:37;11.23;;;10.57;;
34737;SDS011;39910;47.154;27.614;2023-02-28T17:20:03;9.80;;;9.30;;
34737;SDS011;39910;47.154;27.614;2023-02-28T17:22:29;9.57;;;9.07;;